Time;durP1;ratioP1;P1;durP2;ratioP2;P2;SDS_P1;SDS_P2;PMS_P1;PMS_P2;Temp;Humidity;BMP_temperature;BMP_pressure;BME280_temperature;BME280_humidity;BME280_pressure;Samples;Min_cycle;Max_cycle;Signal;HPM_P1;HPM_P2
2023/06/16 00:00:09;;;;;;;1.90;1.80;;;17.40;81.10;;;;;;5073282;28;20445;-84
2023/06/16 00:02:37;;;;;;;2.57;2.00;;;17.40;80.80;;;;;;5073094;28;20941;-84
2023/06/16 00:05:04;;;;;;;2.30;1.67;;;17.40;81.10;;;;;;5073256;28;20540;-84
2023/06/16 00:07:33;;;;;;;2.83;2.10;;;17.40;81.80;;;;;;5073371;28;20488;-84
2023/06/16 00:10:01;;;;;;;2.70;1.87;;;17.40;82.30;;;;;;5073696;28;20463;-84
2023/06/16 00:12:28;;;;;;;3.90;1.63;;;17.40;82.80;;;;;;5075685;28;20448;-84
2023/06/16 00:14:55;;;;;;;2.67;1.47;;;17.40;82.80;;;;;;5072968;28;20437;-84
2023/06/16 00:17:23;;;;;;;3.77;2.73;;;17.40;82.80;;;;;;5073096;28;20461;-84
2023/06/16 00:19:50;;;;;;;1.03;0.93;;;17.40;83.00;;;;;;5072865;28;20937;-84
2023/06/16 00:22:17;;;;;;;3.33;1.40;;;17.30;82.60;;;;;;5072733;28;20484;-84
2023/06/16 00:24:46;;;;;;;4.30;1.93;;;17.30;83.40;;;;;;5073070;28;20532;-84
2023/06/16 00:27:14;;;;;;;2.03;1.50;;;17.30;83.00;;;;;;5072615;28;20484;-84
2023/06/16 00:29:40;;;;;;;2.10;1.43;;;17.30;82.40;;;;;;5072731;28;20932;-84
2023/06/16 00:32:08;;;;;;;3.37;1.80;;;17.30;83.50;;;;;;5072729;28;20436;-84
2023/06/16 00:34:35;;;;;;;2.63;1.93;;;17.30;83.50;;;;;;5072989;28;20451;-84
2023/06/16 00:37:01;;;;;;;3.10;2.20;;;17.20;82.80;;;;;;5072903;28;20472;-84
2023/06/16 00:39:28;;;;;;;2.10;1.80;;;17.20;84.00;;;;;;5072935;28;20456;-84
2023/06/16 00:41:55;;;;;;;2.17;1.60;;;17.20;84.20;;;;;;5072581;28;20445;-84
2023/06/16 00:44:23;;;;;;;2.57;1.50;;;17.10;83.70;;;;;;5072643;28;20437;-84
2023/06/16 00:46:50;;;;;;;2.27;1.40;;;17.10;84.30;;;;;;5072406;28;21019;-84
2023/06/16 00:49:17;;;;;;;3.70;1.60;;;17.10;84.00;;;;;;5072812;28;20453;-84
2023/06/16 00:51:45;;;;;;;1.43;1.33;;;17.10;84.60;;;;;;5072856;28;20453;-83
2023/06/16 00:54:13;;;;;;;2.60;1.20;;;17.00;85.00;;;;;;5072515;28;20452;-83
2023/06/16 00:56:41;;;;;;;3.10;1.93;;;17.00;85.50;;;;;;5072728;28;20461;-84
2023/06/16 00:59:08;;;;;;;2.37;2.17;;;17.00;86.00;;;;;;5072727;28;20453;-83
2023/06/16 01:01:36;;;;;;;3.40;1.90;;;17.00;86.40;;;;;;5072723;28;20444;-84
2023/06/16 01:04:03;;;;;;;1.70;1.00;;;16.90;86.30;;;;;;5073166;28;20491;-84
2023/06/16 01:06:49;;;;;;;1.80;1.50;;;16.90;86.70;;;;;;5076195;28;20484;-84
2023/06/16 01:09:24;;;;;;;1.70;1.27;;;16.80;86.20;;;;;;5076005;28;20440;-84
2023/06/16 01:12:03;;;;;;;3.90;2.37;;;16.90;86.80;;;;;;5076297;28;20431;-84
2023/06/16 01:14:40;;;;;;;2.60;1.50;;;16.80;87.10;;;;;;5077060;28;20490;-84
2023/06/16 01:17:10;;;;;;;2.90;1.83;;;16.70;87.70;;;;;;5076140;28;20471;-84
2023/06/16 01:19:45;;;;;;;3.30;1.90;;;16.70;87.70;;;;;;5076073;28;20449;-83
2023/06/16 01:22:22;;;;;;;2.73;2.20;;;16.60;88.00;;;;;;5075760;28;20479;-83
2023/06/16 01:24:54;;;;;;;1.73;1.47;;;16.50;88.80;;;;;;5076026;28;20433;-84
2023/06/16 01:27:22;;;;;;;2.87;1.70;;;16.50;88.80;;;;;;5076092;28;20499;-84
2023/06/16 01:29:51;;;;;;;1.20;1.10;;;16.50;88.50;;;;;;5075586;28;20465;-84
2023/06/16 01:32:20;;;;;;;2.13;1.30;;;16.50;88.20;;;;;;5075532;28;20453;-83
2023/06/16 01:34:47;;;;;;;2.50;1.70;;;16.50;88.40;;;;;;5075832;28;20445;-83
2023/06/16 01:37:15;;;;;;;2.30;1.67;;;16.40;87.90;;;;;;5075707;28;20553;-84
2023/06/16 01:39:44;;;;;;;5.27;3.10;;;16.40;87.80;;;;;;5075744;28;20445;-84
2023/06/16 01:42:14;;;;;;;3.30;2.00;;;16.30;88.60;;;;;;5075691;28;20451;-84
2023/06/16 01:44:42;;;;;;;1.50;1.30;;;16.30;88.60;;;;;;5075680;28;20453;-84
2023/06/16 01:47:09;;;;;;;2.13;1.93;;;16.30;88.20;;;;;;5075481;28;20845;-84
2023/06/16 01:49:37;;;;;;;1.60;1.20;;;16.30;88.50;;;;;;5075601;28;20457;-83
2023/06/16 01:52:04;;;;;;;2.50;2.00;;;16.20;88.50;;;;;;5075550;28;20452;-84
2023/06/16 01:54:31;;;;;;;1.87;1.70;;;16.20;88.40;;;;;;5075899;28;20805;-84
2023/06/16 01:56:58;;;;;;;2.13;1.93;;;16.20;88.80;;;;;;5075392;28;20468;-83
2023/06/16 01:59:26;;;;;;;2.07;1.90;;;16.20;88.80;;;;;;5075091;28;20448;-83
2023/06/16 02:02:00;;;;;;;2.40;1.77;;;16.10;89.20;;;;;;5075340;28;20456;-83
2023/06/16 02:04:29;;;;;;;1.70;1.60;;;16.10;90.00;;;;;;5075354;28;20432;-83
2023/06/16 02:07:02;;;;;;;1.90;1.77;;;16.10;90.00;;;;;;5075081;28;20488;-83
2023/06/16 02:09:30;;;;;;;1.43;1.20;;;16.00;90.20;;;;;;5075271;28;20429;-84
2023/06/16 02:11:58;;;;;;;4.73;2.77;;;16.00;90.40;;;;;;5075140;28;20632;-83
2023/06/16 02:14:27;;;;;;;4.10;1.97;;;16.00;90.30;;;;;;5075398;28;20433;-84
2023/06/16 02:16:54;;;;;;;1.93;1.60;;;15.90;90.60;;;;;;5074075;28;20473;-84
2023/06/16 02:19:21;;;;;;;2.10;1.90;;;15.90;90.50;;;;;;5074967;28;20460;-84
2023/06/16 02:21:48;;;;;;;2.07;1.87;;;15.80;90.40;;;;;;5074596;28;20575;-83
2023/06/16 02:24:15;;;;;;;4.03;1.47;;;15.80;90.50;;;;;;5074600;28;20433;-84
2023/06/16 02:26:42;;;;;;;1.63;1.50;;;15.80;90.80;;;;;;5074404;28;20484;-83
2023/06/16 02:29:08;;;;;;;5.00;1.83;;;15.80;91.00;;;;;;5074817;28;20983;-84
2023/06/16 02:31:36;;;;;;;5.03;1.90;;;15.80;90.90;;;;;;5074741;28;20441;-84
2023/06/16 02:34:03;;;;;;;1.93;1.80;;;15.90;91.00;;;;;;5074667;28;20456;-84
2023/06/16 02:36:30;;;;;;;3.80;1.60;;;15.70;91.10;;;;;;5074578;28;20464;-84
2023/06/16 02:38:57;;;;;;;1.50;1.00;;;15.70;91.20;;;;;;5074556;28;20492;-84
2023/06/16 02:41:24;;;;;;;6.40;2.27;;;15.60;91.20;;;;;;5074532;28;20456;-83
2023/06/16 02:43:51;;;;;;;2.20;1.80;;;15.60;91.40;;;;;;5074473;28;20804;-84
2023/06/16 02:46:17;;;;;;;1.90;1.70;;;15.60;91.50;;;;;;5074389;28;20469;-83
2023/06/16 02:48:45;;;;;;;2.87;1.90;;;15.50;91.80;;;;;;5074381;28;20449;-84
2023/06/16 02:51:12;;;;;;;1.20;1.10;;;15.50;91.90;;;;;;5074386;28;20429;-84
2023/06/16 02:53:39;;;;;;;2.23;1.67;;;15.40;92.00;;;;;;5073971;28;20944;-84
2023/06/16 02:56:06;;;;;;;1.60;1.50;;;15.40;92.40;;;;;;5074172;28;20488;-84
2023/06/16 02:58:33;;;;;;;2.30;1.30;;;15.30;92.80;;;;;;5074144;28;20806;-83
2023/06/16 03:01:00;;;;;;;2.30;1.90;;;15.30;93.00;;;;;;5074127;28;20449;-84
2023/06/16 03:03:30;;;;;;;1.83;1.30;;;15.20;93.30;;;;;;5074103;28;20824;-84
2023/06/16 03:05:58;;;;;;;3.60;2.00;;;15.20;93.60;;;;;;5074022;28;20772;-84
2023/06/16 03:08:26;;;;;;;4.30;2.10;;;15.20;93.50;;;;;;5073965;28;20481;-84
2023/06/16 03:10:52;;;;;;;1.50;1.40;;;15.20;93.50;;;;;;5073978;28;20453;-83
2023/06/16 03:13:19;;;;;;;1.50;1.40;;;15.10;93.80;;;;;;5073914;28;20451;-83
2023/06/16 03:15:46;;;;;;;2.43;1.80;;;15.10;93.80;;;;;;5073825;28;20448;-84
2023/06/16 03:18:13;;;;;;;1.40;1.30;;;15.10;94.30;;;;;;5073835;28;20440;-84
2023/06/16 03:20:40;;;;;;;5.57;1.93;;;15.20;94.00;;;;;;5073807;28;20453;-83
2023/06/16 03:23:08;;;;;;;2.03;1.40;;;15.20;93.90;;;;;;5073362;28;20476;-83
2023/06/16 03:25:36;;;;;;;1.33;1.23;;;15.10;94.20;;;;;;5073730;28;20445;-84
2023/06/16 03:28:03;;;;;;;2.27;1.77;;;15.10;94.50;;;;;;5073393;28;20575;-84
2023/06/16 03:30:30;;;;;;;6.40;1.90;;;15.10;94.30;;;;;;5073317;28;20799;-84
2023/06/16 03:32:57;;;;;;;2.97;2.40;;;15.00;94.50;;;;;;5073396;28;20456;-83
2023/06/16 03:35:24;;;;;;;3.67;2.10;;;15.00;94.70;;;;;;5074199;28;20472;-83
2023/06/16 03:37:51;;;;;;;3.63;1.83;;;14.90;95.00;;;;;;5073488;28;20461;-84
2023/06/16 03:40:20;;;;;;;2.10;1.40;;;15.00;95.00;;;;;;5073515;28;20455;-83
2023/06/16 03:42:46;;;;;;;1.83;1.70;;;15.00;95.10;;;;;;5073533;28;20445;-83
2023/06/16 03:45:13;;;;;;;2.80;1.87;;;15.10;95.10;;;;;;5073496;28;20813;-83
2023/06/16 03:47:41;;;;;;;2.27;1.70;;;15.00;95.20;;;;;;5073316;28;20477;-84
2023/06/16 03:50:09;;;;;;;2.20;1.87;;;15.00;95.30;;;;;;5073477;28;20959;-83
2023/06/16 03:52:35;;;;;;;2.37;1.83;;;15.00;95.70;;;;;;5073130;28;20939;-83
2023/06/16 03:55:03;;;;;;;1.20;1.10;;;15.00;96.00;;;;;;5073395;28;20448;-84
2023/06/16 03:57:31;;;;;;;1.63;1.53;;;15.10;96.20;;;;;;5073292;28;20510;-84
2023/06/16 03:59:57;;;;;;;2.00;1.70;;;15.00;96.40;;;;;;5073367;28;20449;-84
2023/06/16 04:02:24;;;;;;;1.47;1.37;;;15.00;96.20;;;;;;5073367;28;20455;-84
2023/06/16 04:04:51;;;;;;;2.17;1.43;;;15.00;96.30;;;;;;5072995;28;20449;-83
2023/06/16 04:07:18;;;;;;;3.10;2.20;;;15.10;96.50;;;;;;5072858;28;20494;-84
2023/06/16 04:09:45;;;;;;;2.40;1.80;;;15.10;96.50;;;;;;5072899;28;20944;-83
2023/06/16 04:12:12;;;;;;;2.47;2.20;;;15.10;96.90;;;;;;5073220;28;20815;-84
2023/06/16 04:14:42;;;;;;;4.27;1.90;;;15.20;97.00;;;;;;5072914;28;20979;-84
2023/06/16 04:17:09;;;;;;;1.70;1.60;;;15.20;97.30;;;;;;5072817;28;21019;-84
2023/06/16 04:19:36;;;;;;;2.77;1.57;;;15.30;97.50;;;;;;5073730;28;20445;-84
2023/06/16 04:22:03;;;;;;;1.73;1.63;;;15.30;97.60;;;;;;5072711;28;20467;-84
2023/06/16 04:24:30;;;;;;;3.90;1.47;;;15.40;97.90;;;;;;5072962;28;20452;-84
2023/06/16 04:26:58;;;;;;;1.90;1.57;;;15.40;97.70;;;;;;5078324;22;20501;-83
2023/06/16 04:29:25;;;;;;;2.30;1.90;;;15.40;97.80;;;;;;5032804;28;20962;-84
2023/06/16 04:31:57;;;;;;;2.50;2.20;;;15.50;98.10;;;;;;5032705;28;20445;-84
2023/06/16 04:34:25;;;;;;;3.00;2.07;;;15.60;97.90;;;;;;5032742;28;20451;-83
2023/06/16 04:36:57;;;;;;;2.63;2.37;;;15.60;98.30;;;;;;5032932;28;20472;-83
2023/06/16 04:39:23;;;;;;;2.80;1.80;;;15.70;98.40;;;;;;5034664;28;20452;-84
2023/06/16 04:41:50;;;;;;;1.83;1.60;;;15.70;98.40;;;;;;5036562;28;20435;-83
2023/06/16 04:44:17;;;;;;;2.50;2.30;;;15.80;98.30;;;;;;5036786;28;20452;-83
2023/06/16 04:46:46;;;;;;;2.63;2.03;;;15.80;98.50;;;;;;5036336;28;21024;-84
2023/06/16 04:49:14;;;;;;;3.77;2.57;;;15.90;98.80;;;;;;5036359;28;20478;-83
2023/06/16 04:51:41;;;;;;;1.63;1.40;;;15.90;98.80;;;;;;5036370;28;20439;-83
2023/06/16 04:54:08;;;;;;;5.73;2.70;;;16.00;99.20;;;;;;5036561;28;20446;-83
2023/06/16 04:56:34;;;;;;;2.00;1.83;;;16.00;99.20;;;;;;5036471;28;20470;-83
2023/06/16 04:59:01;;;;;;;2.97;1.20;;;16.10;99.30;;;;;;5036451;28;20447;-83
2023/06/16 05:01:28;;;;;;;4.90;2.63;;;16.20;99.00;;;;;;5036278;28;20473;-84
2023/06/16 05:03:55;;;;;;;2.83;2.10;;;16.30;99.40;;;;;;5036160;28;20525;-83
2023/06/16 05:06:23;;;;;;;4.03;2.00;;;16.30;99.40;;;;;;5036046;28;20459;-83
2023/06/16 05:08:50;;;;;;;5.10;2.17;;;16.40;99.50;;;;;;5036164;28;20480;-83
2023/06/16 05:11:17;;;;;;;3.07;2.30;;;16.50;99.30;;;;;;5036013;28;20492;-83
2023/06/16 05:13:47;;;;;;;2.27;1.67;;;16.50;98.70;;;;;;5035982;28;20431;-83
2023/06/16 05:16:14;;;;;;;2.23;2.03;;;16.60;98.10;;;;;;5036129;28;20477;-83
2023/06/16 05:18:41;;;;;;;2.60;2.00;;;16.60;98.00;;;;;;5036144;28;20443;-83
2023/06/16 05:21:07;;;;;;;2.63;1.60;;;16.70;98.00;;;;;;5036088;28;20481;-83
2023/06/16 05:23:36;;;;;;;1.60;1.50;;;16.80;98.30;;;;;;5036079;28;20450;-83
2023/06/16 05:26:03;;;;;;;2.10;1.80;;;16.90;97.80;;;;;;5035776;28;20490;-83
2023/06/16 05:28:29;;;;;;;2.57;1.70;;;16.90;97.70;;;;;;5036494;28;20833;-83
2023/06/16 05:30:56;;;;;;;2.57;1.87;;;17.00;97.70;;;;;;5035967;28;20442;-83
2023/06/16 05:33:23;;;;;;;4.13;2.50;;;17.20;97.60;;;;;;5035555;28;20938;-83
2023/06/16 05:35:50;;;;;;;3.33;2.00;;;17.30;97.90;;;;;;5035827;28;20530;-83
2023/06/16 05:38:17;;;;;;;2.40;2.03;;;17.20;97.70;;;;;;5035480;28;20453;-83
2023/06/16 05:40:45;;;;;;;2.67;1.40;;;17.30;97.90;;;;;;5035699;28;20458;-83
2023/06/16 05:43:12;;;;;;;4.60;2.80;;;17.40;97.70;;;;;;5035351;28;20970;-83
2023/06/16 05:45:38;;;;;;;2.03;1.80;;;17.50;96.90;;;;;;5035624;28;20455;-84
2023/06/16 05:48:05;;;;;;;1.80;1.70;;;17.70;96.40;;;;;;5035515;28;20493;-83
2023/06/16 05:50:32;;;;;;;3.30;2.13;;;17.80;96.40;;;;;;5034061;28;20431;-83
2023/06/16 05:52:59;;;;;;;1.83;1.73;;;17.90;95.50;;;;;;5035271;28;20455;-83
2023/06/16 05:55:26;;;;;;;1.90;1.73;;;18.00;94.90;;;;;;5035177;28;20435;-83
2023/06/16 05:57:54;;;;;;;2.27;1.90;;;18.10;94.60;;;;;;5035333;28;20466;-83
2023/06/16 06:00:21;;;;;;;2.20;1.70;;;18.20;93.60;;;;;;5035269;28;20450;-84
2023/06/16 06:02:48;;;;;;;4.50;2.30;;;18.40;93.20;;;;;;5035080;28;20946;-84
2023/06/16 06:05:15;;;;;;;2.10;1.47;;;18.60;93.00;;;;;;5035024;28;20434;-83
2023/06/16 06:07:42;;;;;;;2.20;2.00;;;18.60;92.90;;;;;;5035082;28;20462;-83
2023/06/16 06:10:10;;;;;;;1.80;1.70;;;18.80;93.20;;;;;;5035191;28;20450;-83
2023/06/16 06:12:38;;;;;;;4.33;2.33;;;19.00;93.00;;;;;;5035162;28;20451;-83
2023/06/16 06:15:07;;;;;;;2.40;1.97;;;19.20;92.60;;;;;;5035089;28;20526;-84
2023/06/16 06:17:34;;;;;;;2.87;2.33;;;19.40;92.20;;;;;;5034799;28;20480;-83
2023/06/16 06:20:01;;;;;;;3.73;1.90;;;19.60;92.20;;;;;;5035501;28;20458;-84
2023/06/16 06:22:32;;;;;;;2.50;2.30;;;19.90;92.10;;;;;;5035026;28;20526;-83
2023/06/16 06:25:00;;;;;;;2.43;2.00;;;20.20;91.70;;;;;;5017223;28;20442;-84
2023/06/16 06:27:26;;;;;;;2.63;2.20;;;20.50;91.40;;;;;;5034320;28;20482;-84
2023/06/16 06:29:53;;;;;;;2.30;2.00;;;20.70;90.60;;;;;;5034428;28;20485;-84
2023/06/16 06:32:21;;;;;;;3.10;2.30;;;21.00;89.20;;;;;;5034793;28;20457;-84
2023/06/16 06:34:48;;;;;;;4.43;1.90;;;21.40;88.40;;;;;;5035169;28;20486;-84
2023/06/16 06:37:18;;;;;;;2.93;1.60;;;21.70;87.30;;;;;;5034629;28;20473;-84
2023/06/16 06:39:45;;;;;;;2.17;1.93;;;22.00;86.30;;;;;;5034636;28;20462;-84
2023/06/16 06:42:12;;;;;;;5.07;1.73;;;22.50;83.80;;;;;;5034601;28;20257;-84
2023/06/16 06:44:39;;;;;;;4.35;2.75;;;22.80;82.00;;;;;;5034587;28;20611;-84
2023/06/16 06:47:06;;;;;;;2.50;2.30;;;23.30;81.20;;;;;;5034213;28;20220;-84
2023/06/16 06:49:34;;;;;;;2.47;2.15;;;23.40;80.50;;;;;;5034368;28;20308;-84
2023/06/16 06:52:01;;;;;;;2.63;2.42;;;23.60;78.20;;;;;;5034153;28;20298;-84
2023/06/16 06:54:28;;;;;;;4.03;2.50;;;23.50;78.60;;;;;;5034046;28;20199;-84
2023/06/16 06:56:54;;;;;;;1.90;1.80;;;23.30;77.40;;;;;;5034400;28;20222;-83
2023/06/16 06:59:21;;;;;;;2.63;2.43;;;23.20;77.30;;;;;;5034128;28;20230;-84
2023/06/16 07:01:48;;;;;;;14.43;2.55;;;23.10;78.20;;;;;;5033757;28;20211;-83
2023/06/16 07:04:15;;;;;;;2.67;2.47;;;23.00;78.10;;;;;;5034217;28;20207;-84
2023/06/16 07:06:43;;;;;;;2.05;1.85;;;23.10;77.80;;;;;;5034065;28;20233;-84
2023/06/16 07:09:10;;;;;;;2.00;1.90;;;23.00;77.70;;;;;;5033730;28;20277;-83
2023/06/16 07:11:37;;;;;;;3.00;2.17;;;23.20;78.40;;;;;;5034071;28;20203;-83
2023/06/16 07:14:04;;;;;;;2.30;2.10;;;23.30;77.20;;;;;;5033988;28;20199;-83
2023/06/16 07:16:31;;;;;;;2.55;2.25;;;23.40;77.80;;;;;;5033902;28;20223;-83
2023/06/16 07:18:58;;;;;;;2.70;2.42;;;23.50;76.50;;;;;;5033935;28;20574;-84
2023/06/16 07:21:27;;;;;;;3.40;2.67;;;23.60;76.40;;;;;;5033619;28;20693;-83
2023/06/16 07:23:55;;;;;;;2.05;1.95;;;23.50;74.80;;;;;;5033494;28;20714;-83
2023/06/16 07:26:25;;;;;;;2.60;1.63;;;23.60;76.40;;;;;;5033217;28;20571;-83
2023/06/16 07:28:51;;;;;;;2.65;1.92;;;23.90;76.20;;;;;;5033450;28;20572;-83
2023/06/16 07:31:18;;;;;;;5.70;2.20;;;24.10;76.80;;;;;;5033908;28;20238;-83
2023/06/16 07:33:45;;;;;;;3.00;2.35;;;24.30;73.50;;;;;;5033525;28;20568;-83
2023/06/16 07:36:11;;;;;;;2.45;1.95;;;24.60;73.50;;;;;;5033352;28;20223;-84
2023/06/16 07:38:39;;;;;;;2.38;2.15;;;24.80;73.00;;;;;;5034171;28;20211;-83
2023/06/16 07:41:07;;;;;;;2.17;2.08;;;24.80;72.30;;;;;;5033644;28;20187;-83
2023/06/16 07:43:34;;;;;;;2.97;2.67;;;25.00;72.00;;;;;;5033538;28;20210;-84
2023/06/16 07:46:01;;;;;;;2.08;1.88;;;25.10;71.20;;;;;;5033447;28;20611;-83
2023/06/16 07:48:27;;;;;;;2.90;1.88;;;25.50;68.80;;;;;;5034128;28;20219;-84
2023/06/16 07:50:54;;;;;;;4.68;2.47;;;25.60;67.40;;;;;;5033156;28;20686;-83
2023/06/16 07:53:21;;;;;;;2.22;1.95;;;25.90;66.10;;;;;;5033120;28;20203;-84
2023/06/16 07:55:48;;;;;;;1.85;1.75;;;26.00;64.90;;;;;;5033105;28;20563;-84
2023/06/16 07:58:16;;;;;;;1.50;1.40;;;26.20;66.00;;;;;;5033050;28;20207;-84
2023/06/16 08:00:43;;;;;;;1.67;1.58;;;26.50;64.20;;;;;;5033019;28;20195;-84
2023/06/16 08:03:10;;;;;;;2.00;1.80;;;26.90;62.50;;;;;;5033315;28;20200;-83
2023/06/16 08:05:36;;;;;;;4.15;2.40;;;27.20;62.00;;;;;;5033151;28;20235;-84
2023/06/16 08:08:03;;;;;;;3.08;2.28;;;27.60;62.20;;;;;;5032660;28;20596;-84
2023/06/16 08:10:30;;;;;;;1.42;1.33;;;27.80;59.50;;;;;;5032953;28;20200;-83
2023/06/16 08:12:57;;;;;;;1.63;1.52;;;28.50;58.00;;;;;;5033204;28;20215;-83
2023/06/16 08:15:25;;;;;;;1.88;1.65;;;29.20;56.00;;;;;;5036388;28;20206;-83
2023/06/16 08:17:52;;;;;;;2.42;2.13;;;30.10;52.30;;;;;;5036998;28;20277;-84
2023/06/16 08:20:20;;;;;;;2.03;1.90;;;30.80;51.00;;;;;;5037268;28;20200;-83
2023/06/16 08:22:47;;;;;;;1.73;1.63;;;31.30;50.10;;;;;;5037262;28;20200;-84
2023/06/16 08:25:13;;;;;;;1.45;1.35;;;31.90;49.50;;;;;;5037138;28;20288;-83
2023/06/16 08:27:40;;;;;;;1.88;1.67;;;32.60;47.90;;;;;;5036572;28;20612;-83
2023/06/16 08:30:09;;;;;;;1.40;1.30;;;33.30;46.00;;;;;;5036990;28;20222;-84
2023/06/16 08:32:37;;;;;;;1.77;1.67;;;32.90;45.30;;;;;;5037425;28;20243;-84
2023/06/16 08:35:05;;;;;;;1.65;1.30;;;32.30;45.60;;;;;;5037839;28;20206;-84
2023/06/16 08:37:32;;;;;;;1.80;1.67;;;31.80;45.60;;;;;;5036639;28;20592;-84
2023/06/16 08:39:59;;;;;;;2.30;1.67;;;31.40;45.60;;;;;;5036892;28;20213;-84
2023/06/16 08:42:25;;;;;;;1.30;1.20;;;31.00;46.80;;;;;;5036549;28;20217;-84
2023/06/16 08:44:53;;;;;;;1.35;1.25;;;31.00;46.10;;;;;;5036778;28;20205;-84
2023/06/16 08:47:20;;;;;;;1.70;1.60;;;30.80;45.40;;;;;;5036482;28;20268;-84
2023/06/16 08:49:52;;;;;;;1.60;1.50;;;30.80;45.20;;;;;;5036333;28;20713;-84
2023/06/16 08:52:20;;;;;;;1.63;1.50;;;30.90;44.30;;;;;;5036707;28;20210;-84
2023/06/16 08:54:48;;;;;;;1.95;1.85;;;30.70;44.10;;;;;;5036581;28;20212;-84
2023/06/16 08:57:18;;;;;;;1.65;1.55;;;30.20;44.80;;;;;;5036502;28;20272;-84
2023/06/16 08:59:47;;;;;;;1.90;1.80;;;30.10;45.50;;;;;;5036356;28;20186;-84
2023/06/16 09:02:15;;;;;;;2.63;1.65;;;30.20;45.20;;;;;;5036440;28;20201;-84
2023/06/16 09:04:43;;;;;;;1.52;1.35;;;30.40;45.10;;;;;;5036437;28;20373;-84
2023/06/16 09:07:16;;;;;;;1.83;1.73;;;30.00;45.70;;;;;;5036368;28;20223;-84
2023/06/16 09:09:43;;;;;;;2.08;1.88;;;29.40;46.40;;;;;;5036032;28;20679;-84
2023/06/16 09:12:12;;;;;;;1.88;1.77;;;28.70;46.00;;;;;;5036375;28;20201;-84
2023/06/16 09:14:41;;;;;;;2.03;1.60;;;27.90;47.00;;;;;;5035968;28;20675;-84
2023/06/16 09:17:09;;;;;;;1.60;1.50;;;27.20;49.00;;;;;;5036181;28;20220;-84
2023/06/16 09:19:47;;;;;;;2.67;1.50;;;26.90;49.70;;;;;;5035908;28;20199;-84
2023/06/16 09:22:18;;;;;;;2.00;1.77;;;26.90;50.10;;;;;;5036192;28;20196;-84
2023/06/16 09:24:45;;;;;;;8.52;1.92;;;26.80;50.20;;;;;;5035773;28;20188;-84
2023/06/16 09:27:12;;;;;;;1.80;1.67;;;26.70;50.90;;;;;;5035621;28;20322;-85
2023/06/16 09:29:39;;;;;;;2.15;1.80;;;26.70;49.50;;;;;;5036105;28;20313;-84
2023/06/16 09:32:10;;;;;;;1.85;1.75;;;26.70;50.40;;;;;;5036180;28;20198;-84
2023/06/16 09:34:37;;;;;;;2.90;2.05;;;26.90;49.80;;;;;;5035937;28;20188;-84
2023/06/16 09:37:06;;;;;;;1.65;1.55;;;27.10;49.80;;;;;;5035845;28;20601;-84
2023/06/16 09:39:34;;;;;;;1.75;1.60;;;27.40;48.30;;;;;;5035671;28;20203;-84
2023/06/16 09:42:02;;;;;;;1.40;1.30;;;27.70;46.10;;;;;;5035555;28;20207;-84
2023/06/16 09:44:31;;;;;;;1.65;1.55;;;28.00;47.90;;;;;;5035708;28;20273;-84
2023/06/16 09:47:00;;;;;;;3.45;2.33;;;28.30;46.40;;;;;;5035554;28;20215;-85
2023/06/16 09:49:27;;;;;;;2.08;1.38;;;28.20;47.00;;;;;;5035692;28;20216;-84
2023/06/16 09:51:55;;;;;;;1.35;1.25;;;28.10;46.60;;;;;;5035541;28;20208;-85
2023/06/16 09:54:22;;;;;;;1.52;1.42;;;28.00;47.20;;;;;;5035382;28;20203;-85
2023/06/16 09:56:51;;;;;;;1.95;1.80;;;28.00;47.00;;;;;;5035388;28;20219;-84
2023/06/16 09:59:18;;;;;;;1.70;1.33;;;28.00;46.90;;;;;;5035486;28;20199;-85
2023/06/16 10:01:48;;;;;;;1.40;1.30;;;27.70;46.20;;;;;;5036150;28;20207;-85
2023/06/16 10:04:16;;;;;;;1.38;1.27;;;27.50;47.60;;;;;;5035811;28;20208;-84
2023/06/16 10:06:52;;;;;;;2.15;1.73;;;27.60;48.10;;;;;;5036110;28;20614;-85
2023/06/16 10:09:21;;;;;;;1.95;1.85;;;27.90;48.00;;;;;;5036040;28;20211;-84
2023/06/16 10:11:49;;;;;;;4.55;1.70;;;28.00;46.60;;;;;;5034940;28;20219;-84
2023/06/16 10:14:19;;;;;;;1.63;1.52;;;28.00;47.40;;;;;;5034947;28;20196;-85
2023/06/16 10:16:49;;;;;;;3.40;1.35;;;28.00;48.30;;;;;;5035049;28;20224;-84
2023/06/16 10:19:17;;;;;;;2.88;1.75;;;28.00;47.70;;;;;;5035141;28;20286;-85
2023/06/16 10:21:44;;;;;;;2.10;1.98;;;27.90;46.70;;;;;;5035136;28;20207;-84
2023/06/16 10:24:12;;;;;;;1.42;1.33;;;27.90;46.60;;;;;;5035444;28;20200;-85
2023/06/16 10:26:39;;;;;;;1.67;1.58;;;27.90;46.50;;;;;;5034519;28;20247;-85
2023/06/16 10:29:08;;;;;;;2.05;1.95;;;28.00;47.80;;;;;;5034897;28;20194;-86
2023/06/16 10:31:36;;;;;;;1.58;1.48;;;27.90;46.50;;;;;;5034831;28;20203;-85
2023/06/16 10:34:05;;;;;;;2.55;1.52;;;27.70;46.50;;;;;;5034773;28;20250;-85
2023/06/16 10:36:33;;;;;;;1.80;1.70;;;27.70;46.20;;;;;;5033976;28;20229;-85
2023/06/16 10:39:01;;;;;;;1.75;1.60;;;27.60;47.50;;;;;;5034453;28;20211;-86
2023/06/16 10:41:30;;;;;;;2.00;1.90;;;27.60;46.10;;;;;;5035465;28;20199;-85
2023/06/16 10:43:57;;;;;;;1.80;1.70;;;27.60;46.00;;;;;;5034440;28;20667;-85
2023/06/16 10:46:25;;;;;;;1.70;1.55;;;27.70;47.30;;;;;;5034517;28;20238;-85
2023/06/16 10:49:18;;;;;;;1.90;1.80;;;27.90;47.20;;;;;;5034479;28;20204;-85
2023/06/16 10:51:48;;;;;;;1.70;1.60;;;28.00;46.70;;;;;;5034735;28;20262;-86
2023/06/16 10:54:34;;;;;;;2.50;1.92;;;28.00;46.40;;;;;;5034762;28;20203;-85
2023/06/16 10:57:03;;;;;;;2.47;1.35;;;28.00;45.60;;;;;;5034196;28;20738;-85
2023/06/16 10:59:30;;;;;;;1.35;1.25;;;28.10;44.90;;;;;;5034396;28;20673;-86
2023/06/16 11:01:59;;;;;;;3.70;2.00;;;28.20;45.20;;;;;;5034176;28;20676;-86
2023/06/16 11:04:26;;;;;;;1.55;1.45;;;28.30;44.10;;;;;;5034285;28;20230;-86
2023/06/16 11:07:11;;;;;;;1.55;1.45;;;28.70;44.30;;;;;;5034097;28;20245;-86
2023/06/16 11:09:38;;;;;;;2.83;2.03;;;29.20;44.80;;;;;;5034114;28;20303;-86
2023/06/16 11:12:07;;;;;;;3.70;1.40;;;29.40;43.40;;;;;;5033843;28;20735;-84
2023/06/16 11:14:34;;;;;;;2.92;1.70;;;29.10;43.80;;;;;;5033879;28;20246;-85
2023/06/16 11:17:06;;;;;;;1.50;1.50;;;28.80;44.30;;;;;;5033817;28;20274;-85
2023/06/16 11:19:32;;;;;;;2.08;1.73;;;28.60;44.70;;;;;;5033952;28;20544;-84
2023/06/16 11:22:02;;;;;;;3.05;2.08;;;28.30;44.80;;;;;;5033965;28;20207;-90
2023/06/16 11:24:32;;;;;;;1.85;1.73;;;28.10;45.10;;;;;;5034004;28;20207;-84
2023/06/16 11:27:00;;;;;;;1.30;1.30;;;27.90;45.20;;;;;;5033727;28;20649;-84
2023/06/16 11:29:29;;;;;;;2.15;1.98;;;27.60;46.30;;;;;;5033965;28;20233;-88
2023/06/16 11:31:59;;;;;;;1.83;1.73;;;27.40;45.90;;;;;;5033836;28;20203;-84
2023/06/16 11:34:27;;;;;;;1.42;1.33;;;27.40;46.20;;;;;;5034715;28;20249;-84
2023/06/16 11:36:54;;;;;;;2.58;2.08;;;27.30;46.80;;;;;;5033662;28;20261;-84
2023/06/16 11:39:21;;;;;;;1.85;1.48;;;27.20;46.10;;;;;;5033572;28;20290;-84
2023/06/16 11:41:54;;;;;;;4.63;1.17;;;27.20;46.70;;;;;;5033418;28;20701;-84
2023/06/16 11:44:24;;;;;;;2.40;1.73;;;27.40;46.20;;;;;;5033781;28;20188;-88
2023/06/16 11:46:51;;;;;;;1.55;1.45;;;27.50;45.40;;;;;;5033409;28;20270;-86
2023/06/16 11:49:19;;;;;;;1.80;1.70;;;27.50;45.00;;;;;;5033305;28;20571;-86
2023/06/16 11:51:47;;;;;;;2.05;1.92;;;27.40;45.70;;;;;;5033266;28;20195;-86
2023/06/16 11:54:14;;;;;;;1.50;1.40;;;27.30;46.10;;;;;;5033399;28;20208;-86
2023/06/16 11:56:41;;;;;;;3.35;1.75;;;27.20;46.40;;;;;;5033197;28;20713;-86
2023/06/16 11:59:12;;;;;;;2.17;1.98;;;27.10;47.50;;;;;;5033395;28;20210;-86
2023/06/16 12:01:39;;;;;;;3.53;1.83;;;27.20;46.30;;;;;;5033457;28;20658;-86
2023/06/16 12:04:06;;;;;;;1.73;1.60;;;27.30;45.40;;;;;;5033141;28;20199;-86
2023/06/16 12:06:34;;;;;;;2.35;2.25;;;27.20;44.70;;;;;;5033460;28;20606;-86
2023/06/16 12:09:03;;;;;;;2.42;2.15;;;27.10;44.60;;;;;;5033814;28;20625;-86
2023/06/16 12:11:30;;;;;;;2.00;1.80;;;27.00;46.60;;;;;;5033029;28;20591;-86
2023/06/16 12:13:58;;;;;;;3.03;1.50;;;27.00;47.50;;;;;;5033485;28;20200;-85
2023/06/16 12:16:26;;;;;;;2.08;1.98;;;27.10;47.60;;;;;;5033065;28;20220;-85
2023/06/16 12:18:53;;;;;;;1.88;1.58;;;27.10;46.60;;;;;;5033209;28;20209;-84
2023/06/16 12:21:21;;;;;;;1.95;1.85;;;27.00;46.20;;;;;;5033122;28;20286;-84
2023/06/16 12:23:52;;;;;;;3.70;2.13;;;26.80;47.20;;;;;;5032967;28;20192;-89
2023/06/16 12:26:31;;;;;;;1.65;1.60;;;26.80;46.60;;;;;;5033148;28;20247;-86
2023/06/16 12:29:00;;;;;;;2.70;1.92;;;26.60;46.50;;;;;;5033237;28;20558;-86
2023/06/16 12:31:28;;;;;;;1.70;1.60;;;26.60;47.30;;;;;;5032955;28;20257;-86
2023/06/16 12:33:56;;;;;;;4.72;1.88;;;26.50;46.20;;;;;;5033156;28;20207;-86
2023/06/16 12:36:23;;;;;;;2.00;1.90;;;26.40;46.90;;;;;;5033018;28;20223;-86
2023/06/16 12:38:50;;;;;;;1.90;1.80;;;26.30;47.40;;;;;;5033136;28;20206;-86
2023/06/16 12:41:18;;;;;;;2.10;2.00;;;26.20;46.80;;;;;;5033036;28;20196;-86
2023/06/16 12:43:51;;;;;;;3.17;2.58;;;26.10;46.70;;;;;;5033113;28;20567;-84
2023/06/16 12:46:18;;;;;;;2.25;2.05;;;26.10;47.20;;;;;;5032896;28;20634;-86
2023/06/16 12:48:45;;;;;;;2.75;1.63;;;26.10;47.80;;;;;;5032686;28;20198;-86
2023/06/16 12:51:13;;;;;;;1.98;1.70;;;26.10;47.30;;;;;;5032984;28;20207;-85